createdAt,value
2022-12-22T00:00:25.132Z,23.88
2022-12-22T00:03:15.563Z,24.30
2022-12-22T00:06:05.779Z,26.55
2022-12-22T00:09:00.268Z,24.67
2022-12-22T00:11:54.190Z,26.92
2022-12-22T00:14:44.466Z,24.35
2022-12-22T00:17:46.025Z,25.10
2022-12-22T00:20:38.950Z,26.98
2022-12-22T00:23:29.828Z,24.80
2022-12-22T00:26:20.347Z,25.95
2022-12-22T00:29:11.128Z,25.10
2022-12-22T00:32:01.666Z,25.80
2022-12-22T00:35:00.484Z,24.00
2022-12-22T00:37:52.928Z,25.92
2022-12-22T00:40:47.244Z,27.05
2022-12-22T00:43:37.432Z,25.17
2022-12-22T00:46:30.281Z,25.27
2022-12-22T00:49:21.182Z,28.60
2022-12-22T00:52:11.534Z,26.63
2022-12-22T00:55:02.079Z,25.02
2022-12-22T00:57:52.342Z,23.45
2022-12-22T01:00:42.629Z,26.17
2022-12-22T01:03:33.151Z,24.02
2022-12-22T01:06:28.282Z,27.88
2022-12-22T01:09:19.118Z,29.60
2022-12-22T01:12:09.350Z,27.58
2022-12-22T01:15:02.710Z,27.73
2022-12-22T01:17:52.821Z,29.33
2022-12-22T01:20:43.225Z,30.55
2022-12-22T01:23:33.419Z,28.27
2022-12-22T01:26:27.887Z,27.13
2022-12-22T01:29:18.092Z,26.80
2022-12-22T01:32:08.455Z,27.15
2022-12-22T01:34:59.385Z,25.08
2022-12-22T01:37:49.375Z,26.02
2022-12-22T01:40:43.639Z,26.50
2022-12-22T01:43:41.053Z,28.40
2022-12-22T01:46:42.048Z,27.55
2022-12-22T01:49:37.481Z,28.08
2022-12-22T01:52:31.003Z,28.27
2022-12-22T01:55:26.686Z,26.98
2022-12-22T02:01:07.347Z,27.15
2022-12-22T02:03:57.446Z,27.77
2022-12-22T02:07:00.041Z,27.02
2022-12-22T02:10:08.912Z,27.02
2022-12-22T02:13:17.919Z,27.45
2022-12-22T02:16:17.268Z,27.75
2022-12-22T02:19:18.363Z,25.95
2022-12-22T02:22:47.278Z,27.05
2022-12-22T02:25:49.411Z,25.13
2022-12-22T02:28:40.714Z,27.33
2022-12-22T02:31:31.244Z,27.17
2022-12-22T02:34:22.345Z,27.05
2022-12-22T02:37:29.695Z,26.27
2022-12-22T02:40:38.821Z,28.02
2022-12-22T02:43:50.541Z,25.13
2022-12-22T02:46:53.815Z,26.67
2022-12-22T02:50:27.896Z,25.70
2022-12-22T02:53:20.432Z,27.25
2022-12-22T02:56:20.990Z,26.27
2022-12-22T02:59:11.735Z,24.65
2022-12-22T03:02:05.277Z,25.05
2022-12-22T03:04:55.797Z,24.10
2022-12-22T03:07:45.845Z,26.17
2022-12-22T03:10:36.149Z,23.80
2022-12-22T03:13:26.576Z,26.05
2022-12-22T03:16:16.748Z,30.58
2022-12-22T03:19:06.899Z,27.17
2022-12-22T03:21:57.195Z,28.08
2022-12-22T03:24:47.438Z,25.85
2022-12-22T03:27:19.106Z,27.38
2022-12-22T03:29:50.790Z,26.90
2022-12-22T03:32:22.543Z,25.23
2022-12-22T03:34:54.228Z,25.90
2022-12-22T03:37:25.908Z,26.05
2022-12-22T03:39:57.554Z,27.17
2022-12-22T03:42:47.782Z,25.35
2022-12-22T03:45:38.064Z,25.02
2022-12-22T03:48:12.062Z,23.98
2022-12-22T03:50:43.903Z,23.23
2022-12-22T03:53:15.626Z,24.23
2022-12-22T03:55:47.271Z,26.15
2022-12-22T03:58:18.982Z,23.73
2022-12-22T04:00:50.804Z,22.30
2022-12-22T04:03:22.622Z,23.02
2022-12-22T04:05:54.460Z,22.92
2022-12-22T04:08:26.165Z,22.85
2022-12-22T04:11:16.516Z,21.80
2022-12-22T04:13:48.195Z,20.42
2022-12-22T04:16:19.948Z,22.63
2022-12-22T04:18:52.047Z,22.25
2022-12-22T04:21:24.399Z,21.38
2022-12-22T04:23:56.147Z,19.50
2022-12-22T04:26:27.901Z,20.20
2022-12-22T04:28:59.718Z,19.55
2022-12-22T04:31:31.492Z,19.52
2022-12-22T04:34:03.752Z,18.85
2022-12-22T04:36:35.545Z,16.80
2022-12-22T04:39:07.329Z,16.77
2022-12-22T04:41:39.034Z,15.30
2022-12-22T04:44:10.760Z,16.20
2022-12-22T04:46:42.479Z,14.80
2022-12-22T04:49:14.183Z,14.95
2022-12-22T04:51:45.907Z,14.73
2022-12-22T04:54:17.639Z,14.02
2022-12-22T04:56:50.485Z,15.18
2022-12-22T04:59:22.550Z,15.43
2022-12-22T05:01:57.324Z,15.15
2022-12-22T05:04:29.160Z,14.52
2022-12-22T05:07:00.953Z,14.43
2022-12-22T05:09:32.701Z,14.45
2022-12-22T05:12:27.591Z,14.85
2022-12-22T05:14:59.337Z,12.80
2022-12-22T05:17:31.046Z,14.23
2022-12-22T05:20:03.033Z,13.45
2022-12-22T05:22:34.723Z,13.73
2022-12-22T05:25:07.086Z,13.65
2022-12-22T05:27:38.932Z,12.48
2022-12-22T05:30:11.806Z,13.90
2022-12-22T05:32:46.701Z,13.52
2022-12-22T05:35:18.589Z,13.32
2022-12-22T05:37:50.313Z,12.35
2022-12-22T05:40:22.041Z,13.27
2022-12-22T05:42:54.491Z,12.70
2022-12-22T05:45:26.293Z,11.57
2022-12-22T05:47:58.034Z,12.48
2022-12-22T05:50:29.795Z,12.18
2022-12-22T05:53:08.801Z,12.43
2022-12-22T05:55:40.518Z,12.50
2022-12-22T05:58:12.245Z,12.00
2022-12-22T06:00:43.961Z,12.10
2022-12-22T06:03:15.739Z,12.13
2022-12-22T06:05:50.450Z,11.82
2022-12-22T06:08:22.935Z,13.68
2022-12-22T06:10:55.800Z,12.57
2022-12-22T06:13:27.539Z,12.30
2022-12-22T06:15:59.288Z,12.45
2022-12-22T06:18:31.051Z,11.70
2022-12-22T06:21:02.828Z,11.00
2022-12-22T06:23:34.473Z,11.82
2022-12-22T06:26:06.140Z,10.50
2022-12-22T06:28:37.794Z,12.85
2022-12-22T06:31:09.551Z,11.18
2022-12-22T06:33:41.377Z,11.20
2022-12-22T06:36:13.116Z,11.68
2022-12-22T06:38:44.850Z,10.75
2022-12-22T06:41:36.488Z,10.40
2022-12-22T06:44:08.121Z,11.05
2022-12-22T06:46:39.865Z,10.95
2022-12-22T06:49:12.074Z,11.05
2022-12-22T06:51:43.817Z,10.52
2022-12-22T06:54:18.444Z,10.38
2022-12-22T06:56:54.085Z,10.60
2022-12-22T06:59:25.832Z,10.40
2022-12-22T07:01:57.563Z,9.90
2022-12-22T07:04:30.814Z,10.38
2022-12-22T07:07:02.651Z,10.13
2022-12-22T07:09:34.357Z,9.95
2022-12-22T07:12:06.269Z,10.77
2022-12-22T07:14:37.944Z,9.82
2022-12-22T07:17:09.663Z,9.82
2022-12-22T07:19:41.959Z,11.65
2022-12-22T07:22:13.637Z,12.38
2022-12-22T07:24:45.303Z,11.75
2022-12-22T07:27:17.158Z,12.68
2022-12-22T07:29:48.864Z,13.68
2022-12-22T07:32:20.555Z,13.75
2022-12-22T07:34:52.289Z,10.60
2022-12-22T07:37:23.980Z,9.82
2022-12-22T07:39:55.627Z,9.98
2022-12-22T07:42:47.715Z,10.10
2022-12-22T07:45:20.126Z,9.82
2022-12-22T07:47:52.374Z,9.68
2022-12-22T07:50:27.999Z,9.90
2022-12-22T07:53:04.319Z,9.68
2022-12-22T07:55:36.789Z,8.98
2022-12-22T07:58:08.483Z,10.05
2022-12-22T08:00:40.187Z,9.98
2022-12-22T08:03:12.041Z,9.13
2022-12-22T08:05:45.536Z,9.38
2022-12-22T08:08:17.261Z,9.93
2022-12-22T08:10:49.059Z,9.15
2022-12-22T08:13:20.778Z,9.60
2022-12-22T08:15:52.568Z,9.90
2022-12-22T08:18:27.196Z,9.18
2022-12-22T08:20:58.918Z,9.07
2022-12-22T08:23:31.397Z,8.68
2022-12-22T08:26:16.550Z,9.52
2022-12-22T08:31:27.383Z,8.82
2022-12-22T08:34:04.448Z,8.27
2022-12-22T08:36:42.049Z,9.00
2022-12-22T08:39:14.894Z,10.25
2022-12-22T08:41:53.624Z,9.90
2022-12-22T08:44:30.738Z,8.85
2022-12-22T08:47:02.535Z,7.80
2022-12-22T08:49:34.346Z,9.60
2022-12-22T08:52:06.067Z,8.10
2022-12-22T08:54:37.739Z,8.48
2022-12-22T08:57:09.887Z,8.15
2022-12-22T08:59:41.908Z,7.85
2022-12-22T09:02:13.996Z,8.48
2022-12-22T09:04:45.796Z,8.20
2022-12-22T09:07:18.391Z,8.52
2022-12-22T09:09:50.572Z,8.07
2022-12-22T09:12:22.724Z,8.50
2022-12-22T09:14:54.506Z,7.65
2022-12-22T09:17:26.362Z,8.50
2022-12-22T09:19:58.087Z,7.70
2022-12-22T09:22:29.814Z,7.63
2022-12-22T09:25:01.532Z,7.20
2022-12-22T09:27:33.229Z,7.40
2022-12-22T09:30:05.579Z,8.20
2022-12-22T09:32:37.318Z,7.18
2022-12-22T09:35:09.280Z,6.53
2022-12-22T09:37:40.993Z,6.60
2022-12-22T09:40:13.057Z,7.30
2022-12-22T09:42:44.976Z,6.97
2022-12-22T09:45:20.270Z,6.30
2022-12-22T09:47:54.176Z,6.20
2022-12-22T09:50:27.656Z,6.70
2022-12-22T09:53:02.964Z,6.97
2022-12-22T09:55:47.369Z,6.70
2022-12-22T09:58:33.619Z,6.35
2022-12-22T10:01:05.321Z,6.55
2022-12-22T10:04:00.407Z,6.50
2022-12-22T10:06:42.506Z,6.78
2022-12-22T10:09:48.040Z,6.38
2022-12-22T10:12:17.408Z,6.70
2022-12-22T10:14:51.862Z,6.53
2022-12-22T10:17:34.397Z,6.30
2022-12-22T10:20:08.195Z,6.10
2022-12-22T10:22:48.211Z,6.07
2022-12-22T10:26:17.214Z,6.00
2022-12-22T10:28:40.791Z,5.55
2022-12-22T10:31:20.969Z,6.10
2022-12-22T10:33:57.578Z,6.40
2022-12-22T10:36:32.326Z,6.45
2022-12-22T10:41:40.210Z,6.55
2022-12-22T10:44:21.985Z,6.68
2022-12-22T10:46:56.492Z,7.05
2022-12-22T10:49:29.831Z,6.00
2022-12-22T10:52:16.222Z,7.60
2022-12-22T10:54:48.247Z,6.20
2022-12-22T10:57:20.298Z,5.60
2022-12-22T11:00:21.369Z,5.72
2022-12-22T11:02:58.719Z,5.60
2022-12-22T11:05:32.456Z,5.03
2022-12-22T11:08:18.439Z,5.72
2022-12-22T11:11:07.288Z,5.20
2022-12-22T11:13:38.974Z,5.18
2022-12-22T11:16:22.565Z,4.88
2022-12-22T11:19:29.986Z,5.03
2022-12-22T11:22:24.639Z,4.40
2022-12-22T11:25:23.592Z,4.82
2022-12-22T11:28:11.049Z,4.72
2022-12-22T11:31:04.165Z,4.43
2022-12-22T11:34:20.856Z,4.82
2022-12-22T11:37:13.706Z,4.05
2022-12-22T11:39:53.018Z,4.28
2022-12-22T11:43:23.446Z,4.32
2022-12-22T11:46:26.822Z,10.77
2022-12-22T11:49:11.447Z,11.75
2022-12-22T11:52:08.747Z,4.57
2022-12-22T11:54:52.906Z,4.30
2022-12-22T11:58:01.010Z,4.23
2022-12-22T12:01:12.771Z,4.20
2022-12-22T12:04:10.288Z,4.53
2022-12-22T12:07:09.110Z,4.30
2022-12-22T12:09:53.860Z,4.45
2022-12-22T12:12:35.781Z,4.15
2022-12-22T12:15:37.920Z,4.00
2022-12-22T12:18:47.363Z,4.43
2022-12-22T12:21:29.980Z,4.32
2022-12-22T12:24:42.472Z,4.43
2022-12-22T12:27:41.710Z,4.03
2022-12-22T12:33:15.301Z,4.20
2022-12-22T12:36:02.592Z,4.40
2022-12-22T12:39:13.445Z,3.22
2022-12-22T12:41:49.994Z,3.05
2022-12-22T12:44:26.506Z,2.97
2022-12-22T12:47:22.067Z,3.38
2022-12-22T12:49:53.767Z,3.15
2022-12-22T12:52:40.795Z,2.92
2022-12-22T12:55:32.247Z,2.70
2022-12-22T12:58:10.195Z,2.92
2022-12-22T13:00:50.816Z,2.38
2022-12-22T13:03:53.343Z,2.00
2022-12-22T13:06:49.976Z,2.67
2022-12-22T13:12:53.921Z,2.90
2022-12-22T13:15:38.192Z,2.80
2022-12-22T13:18:25.733Z,2.95
2022-12-22T13:21:51.789Z,4.38
2022-12-22T13:24:24.754Z,3.15
2022-12-22T13:27:04.618Z,2.88
2022-12-22T13:29:42.576Z,2.28
2022-12-22T13:32:35.891Z,2.65
2022-12-22T13:35:49.159Z,3.30
2022-12-22T13:38:37.282Z,2.72
2022-12-22T13:41:27.930Z,2.78
2022-12-22T13:44:11.929Z,2.00
2022-12-22T13:46:44.580Z,2.20
2022-12-22T13:49:36.159Z,2.08
2022-12-22T13:52:14.853Z,3.17
2022-12-22T13:54:49.914Z,2.20
2022-12-22T13:57:22.367Z,2.25
2022-12-22T13:59:55.116Z,1.98
2022-12-22T14:02:33.390Z,1.98
2022-12-22T14:05:11.561Z,2.67
2022-12-22T14:08:04.364Z,1.80
2022-12-22T14:10:39.023Z,2.40
2022-12-22T14:16:00.935Z,2.03
2022-12-22T14:18:33.541Z,1.80
2022-12-22T14:21:06.370Z,1.75
2022-12-22T14:23:43.293Z,1.70
2022-12-22T14:26:24.044Z,2.45
2022-12-22T14:28:56.697Z,1.80
2022-12-22T14:31:28.510Z,1.90
2022-12-22T14:34:05.348Z,2.03
2022-12-22T14:36:41.137Z,1.85
2022-12-22T14:39:25.615Z,2.03
2022-12-22T14:42:01.028Z,1.83
2022-12-22T14:44:43.835Z,1.70
2022-12-22T14:47:18.883Z,2.13
2022-12-22T14:50:01.322Z,2.47
2022-12-22T14:52:59.254Z,1.67
2022-12-22T14:55:36.777Z,1.83
2022-12-22T14:58:38.758Z,1.80
2022-12-22T15:01:28.464Z,1.67
2022-12-22T15:04:02.651Z,2.47
2022-12-22T15:06:40.678Z,1.75
2022-12-22T15:09:15.418Z,1.60
2022-12-22T15:14:35.087Z,1.60
2022-12-22T15:17:21.399Z,1.70
2022-12-22T15:19:57.846Z,1.90
2022-12-22T15:22:29.595Z,1.63
2022-12-22T15:25:04.171Z,1.80
2022-12-22T15:27:35.861Z,1.70
2022-12-22T15:30:08.408Z,1.95
2022-12-22T15:32:41.491Z,1.60
2022-12-22T15:35:25.764Z,1.50
2022-12-22T15:37:57.816Z,1.60
2022-12-22T15:40:29.667Z,1.50
2022-12-22T15:43:01.394Z,1.58
2022-12-22T15:45:33.628Z,1.50
2022-12-22T15:48:10.125Z,1.63
2022-12-22T15:50:44.072Z,1.60
2022-12-22T15:53:19.065Z,1.70
2022-12-22T15:55:53.930Z,1.60
2022-12-22T16:01:00.923Z,1.60
2022-12-22T16:03:32.853Z,1.95
2022-12-22T16:06:06.891Z,1.88
2022-12-22T16:08:40.822Z,1.77
2022-12-22T16:11:12.711Z,1.40
2022-12-22T16:13:45.392Z,1.40
2022-12-22T16:16:20.379Z,1.33
2022-12-22T16:18:52.283Z,2.03
2022-12-22T16:21:31.998Z,1.50
2022-12-22T16:24:04.035Z,1.35
2022-12-22T16:26:36.990Z,1.58
2022-12-22T16:29:15.912Z,2.00
2022-12-22T16:31:49.645Z,1.55
2022-12-22T16:34:21.695Z,2.30
2022-12-22T16:36:53.443Z,1.60
2022-12-22T16:39:25.163Z,1.30
2022-12-22T16:41:59.882Z,1.60
2022-12-22T16:47:26.277Z,1.70
2022-12-22T16:49:59.857Z,1.67
2022-12-22T16:52:38.771Z,1.60
2022-12-22T16:55:22.193Z,1.77
2022-12-22T16:57:54.135Z,1.50
2022-12-22T17:00:31.606Z,1.30
2022-12-22T17:03:15.440Z,1.40
2022-12-22T17:05:59.203Z,1.60
2022-12-22T17:08:39.306Z,1.40
2022-12-22T17:11:18.185Z,1.40
2022-12-22T17:13:54.017Z,1.65
2022-12-22T17:16:25.786Z,1.73
2022-12-22T17:18:57.498Z,2.08
2022-12-22T17:21:29.909Z,1.63
2022-12-22T17:24:04.767Z,2.10
2022-12-22T17:26:36.920Z,2.13
2022-12-22T17:29:20.315Z,2.05
2022-12-22T17:31:56.397Z,2.10
2022-12-22T17:34:28.468Z,4.57
2022-12-22T17:37:00.172Z,5.00
2022-12-22T17:39:33.891Z,2.00
2022-12-22T17:42:21.065Z,1.53
2022-12-22T17:44:53.295Z,2.97
2022-12-22T17:47:33.377Z,1.80
2022-12-22T17:50:10.438Z,1.95
2022-12-22T17:52:42.424Z,2.10
2022-12-22T17:56:01.308Z,1.65
2022-12-22T17:58:20.952Z,1.55
2022-12-22T18:00:54.695Z,1.65
2022-12-22T18:03:26.393Z,1.90
2022-12-22T18:06:00.076Z,1.50
2022-12-22T18:08:32.029Z,1.80
2022-12-22T18:11:03.782Z,1.60
2022-12-22T18:13:35.690Z,1.75
2022-12-22T18:16:15.292Z,1.80
2022-12-22T18:18:49.707Z,2.15
2022-12-22T18:21:24.155Z,2.08
2022-12-22T18:23:55.968Z,1.70
2022-12-22T18:26:29.967Z,2.08
2022-12-22T18:29:04.128Z,2.10
2022-12-22T18:31:36.568Z,2.00
2022-12-22T18:34:08.296Z,2.22
2022-12-22T18:36:42.472Z,2.30
2022-12-22T18:39:19.012Z,3.17
2022-12-22T18:41:54.266Z,2.40
2022-12-22T18:44:26.117Z,2.97
2022-12-22T18:46:59.938Z,2.50
2022-12-22T18:49:31.737Z,2.33
2022-12-22T18:52:03.929Z,2.30
2022-12-22T18:54:38.131Z,2.50
2022-12-22T18:57:18.258Z,2.20
2022-12-22T18:59:50.204Z,3.60
2022-12-22T19:02:28.061Z,6.05
2022-12-22T19:04:59.846Z,3.78
2022-12-22T19:07:31.543Z,2.85
2022-12-22T19:10:04.651Z,2.47
2022-12-22T19:12:36.443Z,3.90
2022-12-22T19:15:18.985Z,3.38
2022-12-22T19:17:52.055Z,3.25
2022-12-22T19:20:26.746Z,3.10
2022-12-22T19:25:32.215Z,2.83
2022-12-22T19:28:14.297Z,3.13
2022-12-22T19:30:46.073Z,2.78
2022-12-22T19:33:41.568Z,2.55
2022-12-22T19:38:52.223Z,3.42
2022-12-22T19:41:38.474Z,3.45
2022-12-22T19:44:28.007Z,2.60
2022-12-22T19:47:03.041Z,2.60
2022-12-22T19:49:34.737Z,2.60
2022-12-22T19:52:06.570Z,2.90
2022-12-22T19:54:38.503Z,3.20
2022-12-22T19:57:18.141Z,2.72
2022-12-22T19:59:52.305Z,2.58
2022-12-22T20:02:31.449Z,2.78
2022-12-22T20:05:03.395Z,3.13
2022-12-22T20:07:37.026Z,2.60
2022-12-22T20:10:08.855Z,2.58
2022-12-22T20:12:42.829Z,2.75
2022-12-22T20:15:18.900Z,2.80
2022-12-22T20:17:52.293Z,2.58
2022-12-22T20:20:31.032Z,2.50
2022-12-22T20:23:06.711Z,2.42
2022-12-22T20:25:41.864Z,2.30
2022-12-22T20:28:17.895Z,2.38
2022-12-22T20:30:50.576Z,2.45
2022-12-22T20:33:24.140Z,2.67
2022-12-22T20:35:58.308Z,2.40
2022-12-22T20:38:33.381Z,2.53
2022-12-22T20:41:07.479Z,2.72
2022-12-22T20:43:39.444Z,2.70
2022-12-22T20:46:14.179Z,2.70
2022-12-22T20:51:31.527Z,2.63
2022-12-22T20:54:03.379Z,2.88
2022-12-22T20:56:38.439Z,3.33
2022-12-22T20:59:22.281Z,2.70
2022-12-22T21:01:54.725Z,2.67
2022-12-22T21:04:29.381Z,2.88
2022-12-22T21:07:01.470Z,3.20
2022-12-22T21:09:33.249Z,3.00
2022-12-22T21:12:05.913Z,3.15
2022-12-22T21:14:40.547Z,4.05
2022-12-22T21:17:16.637Z,3.90
2022-12-22T21:19:48.489Z,3.45
2022-12-22T21:22:21.816Z,3.83
2022-12-22T21:24:54.519Z,3.83
2022-12-22T21:27:26.649Z,3.80
2022-12-22T21:29:58.376Z,3.90
2022-12-22T21:32:30.112Z,3.97
2022-12-22T21:35:07.810Z,3.83
2022-12-22T21:37:40.923Z,4.32
2022-12-22T21:40:25.283Z,4.68
2022-12-22T21:42:58.112Z,4.50
2022-12-22T21:45:31.582Z,3.95
2022-12-22T21:48:03.602Z,4.43
2022-12-22T21:50:35.656Z,4.68
2022-12-22T21:53:09.053Z,4.53
2022-12-22T21:55:41.711Z,4.35
2022-12-22T21:58:15.072Z,5.10
2022-12-22T22:00:49.063Z,4.65
2022-12-22T22:03:20.807Z,5.38
2022-12-22T22:05:53.967Z,5.00
2022-12-22T22:08:25.709Z,4.78
2022-12-22T22:10:58.995Z,4.45
2022-12-22T22:13:30.784Z,4.45
2022-12-22T22:16:02.627Z,4.28
2022-12-22T22:18:35.108Z,4.63
2022-12-22T22:21:11.899Z,4.82
2022-12-22T22:23:46.893Z,5.10
2022-12-22T22:26:18.625Z,4.95
2022-12-22T22:28:53.411Z,4.25
2022-12-22T22:33:56.837Z,5.07
2022-12-22T22:36:28.623Z,4.10
2022-12-22T22:39:01.841Z,4.13
2022-12-22T22:41:39.268Z,4.60
2022-12-22T22:44:14.555Z,4.63
2022-12-22T22:46:46.268Z,4.55
2022-12-22T22:49:21.376Z,4.25
2022-12-22T22:51:59.359Z,4.45
2022-12-22T22:54:31.090Z,3.75
2022-12-22T22:57:02.808Z,4.53
2022-12-22T22:59:34.716Z,5.03
2022-12-22T23:02:06.540Z,4.18
2022-12-22T23:04:38.402Z,4.00
2022-12-22T23:07:11.350Z,4.43
2022-12-22T23:09:43.071Z,3.90
2022-12-22T23:12:15.017Z,3.97
2022-12-22T23:14:46.791Z,4.63
2022-12-22T23:17:18.517Z,5.03
2022-12-22T23:19:50.242Z,4.15
2022-12-22T23:22:24.772Z,4.55
2022-12-22T23:24:56.535Z,3.67
2022-12-22T23:27:28.293Z,3.72
2022-12-22T23:30:00.066Z,3.67
2022-12-22T23:32:34.534Z,4.03
2022-12-22T23:35:07.160Z,3.60
2022-12-22T23:37:38.829Z,3.10
2022-12-22T23:40:50.270Z,3.65
2022-12-22T23:43:02.834Z,5.20
2022-12-22T23:45:34.595Z,4.38
2022-12-22T23:48:07.812Z,4.90
2022-12-22T23:50:39.504Z,4.78
2022-12-22T23:53:11.315Z,3.97
2022-12-22T23:55:47.589Z,4.10
2022-12-22T23:58:20.126Z,3.92
